Time;durP1;ratioP1;P1;durP2;ratioP2;P2;SDS_P1;SDS_P2;PMS_P1;PMS_P2;Temp;Humidity;BMP_temperature;BMP_pressure;BME280_temperature;BME280_humidity;BME280_pressure;Samples;Min_cycle;Max_cycle;Signal;HPM_P1;HPM_P2
2023/10/28 00:00:37;;;;;;;;;;;11.00;68.90;;;;;;4969664;28;114490;-84
2023/10/28 00:03:05;;;;;;;;;;;11.00;68.90;;;;;;4969146;28;114458;-85
2023/10/28 00:05:32;;;;;;;;;;;11.00;68.80;;;;;;4969797;28;114283;-84
2023/10/28 00:08:01;;;;;;;;;;;11.00;68.80;;;;;;5000886;28;114894;-83
2023/10/28 00:10:29;;;;;;;;;;;11.00;68.80;;;;;;4969064;28;115960;-83
2023/10/28 00:12:56;;;;;;;;;;;11.00;68.70;;;;;;4968693;28;114074;-84
2023/10/28 00:15:24;;;;;;;;;;;10.90;68.60;;;;;;4968477;28;114623;-85
2023/10/28 00:17:51;;;;;;;;;;;10.90;68.50;;;;;;4968587;28;115149;-84
2023/10/28 00:20:18;;;;;;;;;;;10.90;68.50;;;;;;4968365;28;114599;-83
2023/10/28 00:22:45;;;;;;;;;;;10.90;68.50;;;;;;4969729;28;114342;-84
2023/10/28 00:25:13;;;;;;;;;;;10.90;68.50;;;;;;4969332;28;114389;-82
2023/10/28 00:27:40;;;;;;;;;;;10.90;68.40;;;;;;4969489;28;115245;-83
2023/10/28 00:30:08;;;;;;;;;;;10.90;68.40;;;;;;4967987;28;114613;-83
2023/10/28 00:32:36;;;;;;;;;;;10.80;68.40;;;;;;4970045;28;114204;-83
2023/10/28 00:35:07;;;;;;;;;;;10.80;68.40;;;;;;4952814;28;114337;-83
2023/10/28 00:37:34;;;;;;;;;;;10.90;68.40;;;;;;4967645;28;114958;-83
2023/10/28 00:40:05;;;;;;;;;;;10.90;68.40;;;;;;4967172;28;117353;-83
2023/10/28 00:42:35;;;;;;;;;;;10.90;68.30;;;;;;5000862;28;114508;-84
2023/10/28 00:45:06;;;;;;;;;;;10.90;68.30;;;;;;4985656;28;114099;-83
2023/10/28 00:47:36;;;;;;;;;;;10.90;68.30;;;;;;4966618;28;114918;-84
2023/10/28 00:50:09;;;;;;;;;;;10.90;68.20;;;;;;5000210;28;115266;-83
2023/10/28 00:52:47;;;;;;;;;;;10.90;68.20;;;;;;4968610;28;114081;-82
2023/10/28 00:55:14;;;;;;;;;;;10.90;68.20;;;;;;5001445;28;114392;-83
2023/10/28 00:57:42;;;;;;;;;;;10.90;68.20;;;;;;4967475;28;114804;-83
2023/10/28 01:00:10;;;;;;;;;;;10.90;68.10;;;;;;4968580;28;115292;-82
2023/10/28 01:02:39;;;;;;;;;;;10.90;68.10;;;;;;4968326;28;114279;-83
2023/10/28 01:05:09;;;;;;;;;;;10.90;68.10;;;;;;4968247;28;114221;-83
2023/10/28 01:07:36;;;;;;;;;;;10.90;68.10;;;;;;4966838;28;114876;-84
2023/10/28 01:10:03;;;;;;;;;;;10.90;68.00;;;;;;4967064;28;115116;-83
2023/10/28 01:12:31;;;;;;;;;;;10.90;68.00;;;;;;4969184;28;114456;-84
2023/10/28 01:14:58;;;;;;;;;;;10.90;68.10;;;;;;4968194;28;114356;-82
2023/10/28 01:17:25;;;;;;;;;;;10.90;68.00;;;;;;4968117;28;115859;-84
2023/10/28 01:19:53;;;;;;;;;;;10.90;67.90;;;;;;4966644;28;114596;-83
2023/10/28 01:22:21;;;;;;;;;;;10.90;67.90;;;;;;4967662;28;114125;-83
2023/10/28 01:24:49;;;;;;;;;;;10.90;67.90;;;;;;4984421;28;114238;-82
2023/10/28 01:27:19;;;;;;;;;;;10.90;67.80;;;;;;4968211;28;114874;-82
2023/10/28 01:29:46;;;;;;;;;;;10.90;67.80;;;;;;4950682;28;114559;-83
2023/10/28 01:32:14;;;;;;;;;;;10.90;67.80;;;;;;4951332;28;114126;-83
2023/10/28 01:34:48;;;;;;;;;;;10.90;67.90;;;;;;4967816;28;114442;-83
2023/10/28 01:37:18;;;;;;;;;;;10.90;67.90;;;;;;4983495;28;114555;-83
2023/10/28 01:39:51;;;;;;;;;;;10.90;67.90;;;;;;4966814;28;115007;-82
2023/10/28 01:42:19;;;;;;;;;;;11.00;67.90;;;;;;4951274;28;114354;-84
2023/10/28 01:44:50;;;;;;;;;;;11.00;67.70;;;;;;4967377;28;114400;-85
2023/10/28 01:47:17;;;;;;;;;;;11.00;67.70;;;;;;4967908;28;114585;-83
2023/10/28 01:49:45;;;;;;;;;;;10.90;67.60;;;;;;4967542;28;116604;-84
2023/10/28 01:52:13;;;;;;;;;;;10.90;67.60;;;;;;4968756;28;114394;-83
2023/10/28 01:54:40;;;;;;;;;;;11.00;67.60;;;;;;4983796;28;114452;-82
2023/10/28 01:57:07;;;;;;;;;;;11.00;67.50;;;;;;4999235;28;114958;-82
2023/10/28 01:59:34;;;;;;;;;;;11.00;67.40;;;;;;4969704;28;114364;-83
2023/10/28 02:02:02;;;;;;;;;;;10.90;67.40;;;;;;5003770;28;114415;-84
2023/10/28 02:04:31;;;;;;;;;;;11.00;67.50;;;;;;4971970;28;114227;-85
2023/10/28 02:06:58;;;;;;;;;;;11.00;67.50;;;;;;4970755;28;114819;-84
2023/10/28 02:09:29;;;;;;;;;;;11.00;67.40;;;;;;4970881;28;114598;-84
2023/10/28 02:11:56;;;;;;;;;;;11.00;67.30;;;;;;4991300;28;114054;-83
2023/10/28 02:14:23;;;;;;;;;;;11.00;67.30;;;;;;4975639;28;114136;-84
2023/10/28 02:16:51;;;;;;;;;;;10.90;67.30;;;;;;4969975;28;116615;-84
2023/10/28 02:19:20;;;;;;;;;;;10.90;67.30;;;;;;5002871;28;114691;-84
2023/10/28 02:21:48;;;;;;;;;;;10.90;67.40;;;;;;4970650;28;114192;-84
2023/10/28 02:24:34;;;;;;;;;;;11.00;67.30;;;;;;4971758;28;114239;-84
2023/10/28 02:27:01;;;;;;;;;;;10.90;67.30;;;;;;4970879;28;114912;-85
2023/10/28 02:29:29;;;;;;;;;;;10.90;67.30;;;;;;4970606;28;114767;-84
2023/10/28 02:31:56;;;;;;;;;;;10.90;67.30;;;;;;5003219;28;114185;-84
2023/10/28 02:34:23;;;;;;;;;;;10.90;67.40;;;;;;4971587;28;114181;-84
2023/10/28 02:36:50;;;;;;;;;;;10.90;67.40;;;;;;4970640;28;115133;-84
2023/10/28 02:39:17;;;;;;;;;;;11.00;67.40;;;;;;4986144;28;117993;-83
2023/10/28 02:41:44;;;;;;;;;;;10.90;67.50;;;;;;4971889;28;114333;-83
2023/10/28 02:44:12;;;;;;;;;;;11.00;67.50;;;;;;4971712;28;114276;-84
2023/10/28 02:46:39;;;;;;;;;;;10.90;67.50;;;;;;4970177;28;115527;-84
2023/10/28 02:49:06;;;;;;;;;;;11.00;67.50;;;;;;4969261;28;114825;-84
2023/10/28 02:51:33;;;;;;;;;;;11.00;67.50;;;;;;4986305;28;114175;-81
2023/10/28 02:54:01;;;;;;;;;;;11.00;67.40;;;;;;4971533;28;114379;-84
2023/10/28 02:56:28;;;;;;;;;;;11.00;67.40;;;;;;4970500;28;114829;-84
2023/10/28 02:58:55;;;;;;;;;;;11.00;67.50;;;;;;4969223;28;114916;-85
2023/10/28 03:01:22;;;;;;;;;;;11.00;67.50;;;;;;4971267;28;114175;-85
2023/10/28 03:03:50;;;;;;;;;;;11.00;67.50;;;;;;4970234;28;114322;-84
2023/10/28 03:06:16;;;;;;;;;;;11.00;67.50;;;;;;4968963;28;115068;-85
2023/10/28 03:08:43;;;;;;;;;;;11.00;67.50;;;;;;4969881;28;114940;-84
2023/10/28 03:11:11;;;;;;;;;;;11.10;67.50;;;;;;4970221;28;114353;-83
2023/10/28 03:13:38;;;;;;;;;;;11.00;67.40;;;;;;4970986;28;114322;-82
2023/10/28 03:16:05;;;;;;;;;;;11.00;67.50;;;;;;4969703;28;114903;-83
2023/10/28 03:18:33;;;;;;;;;;;11.10;67.40;;;;;;5001420;28;114571;-83
2023/10/28 03:21:00;;;;;;;;;;;11.00;67.40;;;;;;4970026;28;114282;-83
2023/10/28 03:23:28;;;;;;;;;;;11.10;67.30;;;;;;4985737;28;114340;-83
2023/10/28 03:25:55;;;;;;;;;;;11.00;67.30;;;;;;4969763;28;114917;-84
2023/10/28 03:28:22;;;;;;;;;;;11.00;67.20;;;;;;4969562;28;114758;-83
2023/10/28 03:30:49;;;;;;;;;;;11.00;67.20;;;;;;4969163;28;114200;-84
2023/10/28 03:33:16;;;;;;;;;;;11.00;67.20;;;;;;5002480;28;113971;-83
2023/10/28 03:35:46;;;;;;;;;;;11.00;67.20;;;;;;4984543;28;117789;-84
2023/10/28 03:38:13;;;;;;;;;;;10.90;67.10;;;;;;5000539;28;115048;-84
2023/10/28 03:40:40;;;;;;;;;;;10.90;67.20;;;;;;4969206;28;114295;-83
2023/10/28 03:43:08;;;;;;;;;;;10.90;67.20;;;;;;4985076;28;114552;-82
2023/10/28 03:45:38;;;;;;;;;;;10.90;67.20;;;;;;4983785;28;117939;-82
2023/10/28 03:48:05;;;;;;;;;;;11.00;67.20;;;;;;4969158;28;114623;-82
2023/10/28 03:50:32;;;;;;;;;;;10.90;67.10;;;;;;4970061;28;114176;-82
2023/10/28 03:52:59;;;;;;;;;;;10.90;67.10;;;;;;4970770;28;113945;-82
2023/10/28 03:55:26;;;;;;;;;;;10.90;67.10;;;;;;4969207;28;115056;-82
2023/10/28 03:57:55;;;;;;;;;;;10.90;67.10;;;;;;4974477;28;114579;-82
2023/10/28 04:00:22;;;;;;;;;;;10.90;67.00;;;;;;5001660;28;114512;-83
2023/10/28 04:02:52;;;;;;;;;;;10.80;67.00;;;;;;4970230;28;114378;-84
2023/10/28 04:05:19;;;;;;;;;;;10.80;67.00;;;;;;4969586;28;114910;-84
2023/10/28 04:07:46;;;;;;;;;;;10.80;66.90;;;;;;4968857;28;115839;-83
2023/10/28 04:10:13;;;;;;;;;;;10.70;66.90;;;;;;4985720;28;114357;-84
2023/10/28 04:12:40;;;;;;;;;;;10.70;67.00;;;;;;4970206;28;114192;-83
2023/10/28 04:15:09;;;;;;;;;;;10.70;67.00;;;;;;4968978;28;114891;-84
2023/10/28 04:17:36;;;;;;;;;;;10.60;67.00;;;;;;5000692;28;114840;-83
2023/10/28 04:20:04;;;;;;;;;;;10.60;67.00;;;;;;4969652;28;114327;-83
2023/10/28 04:22:32;;;;;;;;;;;10.60;67.10;;;;;;4967814;28;114372;-82
2023/10/28 04:25:02;;;;;;;;;;;10.60;67.00;;;;;;4968666;28;114932;-82
2023/10/28 04:27:29;;;;;;;;;;;10.50;67.00;;;;;;4968830;28;114930;-83
2023/10/28 04:29:57;;;;;;;;;;;10.50;66.90;;;;;;4969736;28;114413;-82
2023/10/28 04:32:24;;;;;;;;;;;10.50;67.00;;;;;;4970011;28;114245;-83
2023/10/28 04:34:51;;;;;;;;;;;10.50;67.10;;;;;;4968543;28;115585;-82
2023/10/28 04:37:28;;;;;;;;;;;10.40;67.10;;;;;;4967486;28;114880;-82
2023/10/28 04:39:55;;;;;;;;;;;10.50;67.10;;;;;;4969434;28;114285;-82
2023/10/28 04:42:22;;;;;;;;;;;10.40;67.10;;;;;;5001499;28;114373;-82
2023/10/28 04:44:49;;;;;;;;;;;10.40;67.10;;;;;;4968382;28;114799;-82
2023/10/28 04:47:16;;;;;;;;;;;10.50;67.20;;;;;;4968423;28;114685;-82
2023/10/28 04:49:43;;;;;;;;;;;10.50;67.20;;;;;;4984390;28;114556;-82
2023/10/28 04:52:10;;;;;;;;;;;10.50;67.20;;;;;;4969440;28;114204;-82
2023/10/28 04:54:38;;;;;;;;;;;10.50;67.30;;;;;;4968317;28;114969;-82
2023/10/28 04:57:05;;;;;;;;;;;10.50;67.20;;;;;;4968219;28;114631;-82
2023/10/28 04:59:32;;;;;;;;;;;10.50;67.20;;;;;;4969324;28;114108;-83
2023/10/28 05:02:00;;;;;;;;;;;10.50;67.10;;;;;;4969276;28;114121;-82
2023/10/28 05:04:27;;;;;;;;;;;10.50;67.10;;;;;;4968014;28;114980;-82
2023/10/28 05:06:54;;;;;;;;;;;10.50;67.10;;;;;;4968351;28;114799;-82
2023/10/28 05:09:21;;;;;;;;;;;10.40;67.10;;;;;;5000628;28;114326;-83
2023/10/28 05:11:50;;;;;;;;;;;10.40;67.00;;;;;;4969300;28;114358;-83
2023/10/28 05:14:17;;;;;;;;;;;10.40;67.00;;;;;;4999404;28;114963;-83
2023/10/28 05:16:45;;;;;;;;;;;10.30;67.00;;;;;;5000080;28;117861;-84
2023/10/28 05:19:12;;;;;;;;;;;10.30;67.10;;;;;;5000733;28;114965;-84
2023/10/28 05:21:39;;;;;;;;;;;10.30;67.00;;;;;;4968867;28;114271;-83
2023/10/28 05:24:06;;;;;;;;;;;10.30;67.00;;;;;;4982550;28;117544;-83
2023/10/28 05:26:33;;;;;;;;;;;10.30;67.10;;;;;;4967905;28;115400;-83
2023/10/28 05:29:00;;;;;;;;;;;10.20;67.00;;;;;;4967600;28;114354;-83
2023/10/28 05:31:27;;;;;;;;;;;10.20;67.10;;;;;;4969009;28;114430;-83
2023/10/28 05:33:55;;;;;;;;;;;10.30;67.20;;;;;;4967617;28;114878;-83
2023/10/28 05:36:22;;;;;;;;;;;10.30;67.10;;;;;;4966309;28;115766;-83
2023/10/28 05:38:50;;;;;;;;;;;10.20;67.10;;;;;;4968635;28;114395;-82
2023/10/28 05:41:18;;;;;;;;;;;10.30;67.10;;;;;;4976916;28;114306;-83
2023/10/28 05:43:45;;;;;;;;;;;10.20;67.10;;;;;;4974281;28;115909;-83
2023/10/28 05:46:15;;;;;;;;;;;10.20;67.10;;;;;;4968438;28;114953;-84
2023/10/28 05:48:42;;;;;;;;;;;10.30;67.00;;;;;;4969657;28;114434;-83
2023/10/28 05:51:09;;;;;;;;;;;10.30;67.00;;;;;;4969135;28;114371;-83
2023/10/28 05:53:37;;;;;;;;;;;10.30;67.20;;;;;;4968095;28;115220;-83
2023/10/28 05:56:05;;;;;;;;;;;10.30;67.10;;;;;;4967953;28;115904;-83
2023/10/28 05:58:32;;;;;;;;;;;10.30;67.00;;;;;;4968966;28;114317;-84
2023/10/28 06:00:59;;;;;;;;;;;10.40;67.00;;;;;;4975655;28;114330;-84
2023/10/28 06:03:27;;;;;;;;;;;10.50;67.10;;;;;;4973206;28;114968;-85
2023/10/28 06:05:55;;;;;;;;;;;10.70;67.10;;;;;;4967245;28;114597;-88
2023/10/28 06:08:22;;;;;;;;;;;10.70;67.00;;;;;;4978400;28;117247;-86
2023/10/28 06:10:49;;;;;;;;;;;10.90;67.10;;;;;;4985800;28;114764;-85
2023/10/28 06:13:16;;;;;;;;;;;11.00;66.80;;;;;;4984449;28;114918;-84
2023/10/28 06:15:44;;;;;;;;;;;11.20;66.80;;;;;;4966827;28;114716;-86
2023/10/28 06:18:11;;;;;;;;;;;11.30;66.70;;;;;;4974714;28;114769;-84
2023/10/28 06:20:39;;;;;;;;;;;11.40;66.40;;;;;;4947139;28;114265;-86
2023/10/28 06:23:07;;;;;;;;;;;11.60;66.40;;;;;;4947791;28;115178;-87
2023/10/28 06:25:37;;;;;;;;;;;11.70;66.30;;;;;;4978687;28;117063;-85
2023/10/28 06:28:05;;;;;;;;;;;11.80;66.20;;;;;;4948701;28;114301;-86
2023/10/28 06:30:33;;;;;;;;;;;12.00;66.00;;;;;;4979887;28;114484;-87
2023/10/28 06:33:02;;;;;;;;;;;12.10;65.90;;;;;;4962666;28;114859;-87
2023/10/28 06:35:30;;;;;;;;;;;12.20;65.70;;;;;;4947181;28;115331;-86
2023/10/28 06:37:57;;;;;;;;;;;12.30;65.50;;;;;;4990727;28;114362;-86
2023/10/28 06:40:24;;;;;;;;;;;12.50;65.30;;;;;;4965913;28;114529;-87
2023/10/28 06:42:51;;;;;;;;;;;12.60;65.00;;;;;;4949574;28;114982;-86
2023/10/28 06:45:19;;;;;;;;;;;12.70;64.50;;;;;;4967851;28;115009;-87
2023/10/28 06:47:46;;;;;;;;;;;12.70;64.10;;;;;;4986564;28;114343;-86
2023/10/28 06:50:17;;;;;;;;;;;12.70;64.20;;;;;;4971174;28;114048;-86
2023/10/28 06:52:44;;;;;;;;;;;12.80;64.10;;;;;;4952819;28;115737;-86
2023/10/28 06:55:12;;;;;;;;;;;13.00;63.80;;;;;;4968665;28;115199;-85
2023/10/28 06:57:41;;;;;;;;;;;12.90;63.60;;;;;;4954213;28;114105;-86
2023/10/28 07:00:15;;;;;;;;;;;12.90;63.50;;;;;;4986603;28;114478;-87
2023/10/28 07:02:43;;;;;;;;;;;12.80;63.60;;;;;;4953783;28;115225;-86
2023/10/28 07:05:10;;;;;;;;;;;12.70;63.70;;;;;;4952202;28;115849;-87
2023/10/28 07:07:38;;;;;;;;;;;12.70;63.40;;;;;;4953822;28;114217;-87
2023/10/28 07:10:06;;;;;;;;;;;12.70;63.50;;;;;;4970194;28;114340;-86
2023/10/28 07:12:33;;;;;;;;;;;12.60;63.40;;;;;;4968698;28;117226;-86
2023/10/28 07:15:00;;;;;;;;;;;12.70;63.60;;;;;;4952423;28;118371;-87
2023/10/28 07:17:27;;;;;;;;;;;12.70;63.60;;;;;;4969394;28;114132;-86
2023/10/28 07:19:55;;;;;;;;;;;12.90;63.40;;;;;;4952920;28;114285;-86
2023/10/28 07:22:25;;;;;;;;;;;13.00;63.60;;;;;;4968905;28;118758;-86
2023/10/28 07:24:54;;;;;;;;;;;13.20;63.60;;;;;;4936852;28;117997;-87
2023/10/28 07:27:21;;;;;;;;;;;13.30;63.30;;;;;;4972236;28;114110;-86
2023/10/28 07:29:49;;;;;;;;;;;13.40;63.00;;;;;;4971231;28;114191;-87
2023/10/28 07:32:17;;;;;;;;;;;13.50;63.10;;;;;;4968920;28;115043;-87
2023/10/28 07:34:44;;;;;;;;;;;13.70;62.90;;;;;;4970121;28;115223;-87
2023/10/28 07:37:11;;;;;;;;;;;13.70;62.90;;;;;;4953278;28;114430;-87
2023/10/28 07:39:38;;;;;;;;;;;13.90;62.70;;;;;;4971360;28;114137;-87
2023/10/28 07:42:06;;;;;;;;;;;13.90;62.50;;;;;;4968030;28;114957;-87
2023/10/28 07:44:33;;;;;;;;;;;13.90;62.30;;;;;;4952085;28;114575;-87
2023/10/28 07:47:00;;;;;;;;;;;13.90;62.20;;;;;;4969267;28;114310;-86
2023/10/28 07:49:27;;;;;;;;;;;13.90;62.20;;;;;;4969355;28;114257;-87
2023/10/28 07:51:54;;;;;;;;;;;14.00;62.10;;;;;;4968043;28;118514;-86
2023/10/28 07:54:21;;;;;;;;;;;14.00;62.10;;;;;;4952073;28;114776;-87
2023/10/28 07:56:48;;;;;;;;;;;14.10;62.00;;;;;;4968876;28;114162;-86
2023/10/28 07:59:16;;;;;;;;;;;14.20;61.80;;;;;;4969072;28;114491;-86
2023/10/28 08:01:43;;;;;;;;;;;14.10;61.80;;;;;;4968136;28;115580;-87
2023/10/28 08:04:10;;;;;;;;;;;14.10;61.70;;;;;;4968001;28;117478;-86
2023/10/28 08:06:38;;;;;;;;;;;14.10;61.70;;;;;;4968037;28;114386;-87
2023/10/28 08:09:05;;;;;;;;;;;14.10;61.60;;;;;;4936679;28;114554;-87
2023/10/28 08:11:35;;;;;;;;;;;14.00;61.50;;;;;;4968244;28;117215;-86
2023/10/28 08:14:05;;;;;;;;;;;14.00;61.60;;;;;;4967603;28;116528;-87
2023/10/28 08:16:34;;;;;;;;;;;14.00;61.60;;;;;;4936657;28;115145;-87
2023/10/28 08:19:03;;;;;;;;;;;13.90;61.30;;;;;;4952601;28;114398;-87
2023/10/28 08:21:31;;;;;;;;;;;13.80;61.30;;;;;;4934636;28;118893;-85
2023/10/28 08:23:58;;;;;;;;;;;13.70;61.20;;;;;;4968931;28;115022;-84
2023/10/28 08:26:26;;;;;;;;;;;13.70;61.30;;;;;;5001674;28;114225;-86
2023/10/28 08:28:53;;;;;;;;;;;13.70;61.40;;;;;;4969669;28;114260;-87
2023/10/28 08:31:21;;;;;;;;;;;13.60;61.40;;;;;;4967515;28;118467;-87
2023/10/28 08:33:52;;;;;;;;;;;13.50;61.50;;;;;;4967142;28;116924;-85
2023/10/28 08:36:19;;;;;;;;;;;13.50;61.50;;;;;;4968502;28;114137;-86
2023/10/28 08:38:47;;;;;;;;;;;13.50;61.50;;;;;;4969754;28;114128;-86
2023/10/28 08:41:16;;;;;;;;;;;13.50;61.50;;;;;;4966804;28;117743;-87
2023/10/28 08:43:45;;;;;;;;;;;13.50;61.60;;;;;;4968228;28;117656;-87
2023/10/28 08:46:12;;;;;;;;;;;13.40;61.40;;;;;;4937886;28;114468;-87
2023/10/28 08:48:39;;;;;;;;;;;13.40;61.50;;;;;;4939087;28;114416;-86
2023/10/28 08:51:07;;;;;;;;;;;13.40;61.60;;;;;;4953466;28;115109;-87
2023/10/28 08:53:34;;;;;;;;;;;13.30;61.60;;;;;;4987273;28;115074;-85
2023/10/28 08:56:01;;;;;;;;;;;13.30;61.50;;;;;;4968954;28;114480;-86
2023/10/28 08:58:30;;;;;;;;;;;13.20;61.60;;;;;;4968509;28;114300;-86
2023/10/28 09:01:01;;;;;;;;;;;13.20;61.70;;;;;;4984278;28;115039;-85
2023/10/28 09:03:29;;;;;;;;;;;13.20;61.60;;;;;;4984473;28;114605;-87
2023/10/28 09:05:59;;;;;;;;;;;13.10;61.50;;;;;;4968446;28;114249;-87
2023/10/28 09:08:27;;;;;;;;;;;13.10;61.40;;;;;;4968322;28;114679;-87
2023/10/28 09:10:54;;;;;;;;;;;13.00;61.40;;;;;;4967337;28;114859;-86
2023/10/28 09:13:21;;;;;;;;;;;13.00;61.50;;;;;;4951209;28;114982;-86
2023/10/28 09:15:49;;;;;;;;;;;13.00;61.60;;;;;;5010067;28;114155;-86
2023/10/28 09:18:19;;;;;;;;;;;13.00;61.60;;;;;;4953706;28;114216;-87
2023/10/28 09:20:46;;;;;;;;;;;13.00;61.70;;;;;;4983267;28;115548;-88
2023/10/28 09:23:13;;;;;;;;;;;13.10;61.70;;;;;;4967579;28;118311;-87
2023/10/28 09:25:41;;;;;;;;;;;13.10;61.80;;;;;;4952456;28;114481;-86
2023/10/28 09:28:15;;;;;;;;;;;13.10;61.70;;;;;;5001475;28;114626;-87
2023/10/28 09:30:46;;;;;;;;;;;13.10;61.70;;;;;;4968377;28;115253;-86
2023/10/28 09:33:13;;;;;;;;;;;13.10;61.80;;;;;;4966620;28;117081;-87
2023/10/28 09:35:43;;;;;;;;;;;13.20;61.80;;;;;;4984707;28;114251;-85
2023/10/28 09:38:11;;;;;;;;;;;13.10;61.80;;;;;;4936761;28;114840;-85
2023/10/28 09:40:38;;;;;;;;;;;13.20;61.70;;;;;;4966886;28;118171;-86
2023/10/28 09:43:06;;;;;;;;;;;13.10;61.70;;;;;;4950797;28;114618;-86
2023/10/28 09:45:35;;;;;;;;;;;13.00;61.60;;;;;;4984762;28;114086;-87
2023/10/28 09:48:14;;;;;;;;;;;13.00;61.60;;;;;;4985447;28;114332;-86
2023/10/28 09:50:49;;;;;;;;;;;12.90;61.60;;;;;;4966917;28;114288;-86
2023/10/28 09:53:28;;;;;;;;;;;12.90;61.70;;;;;;4967779;28;114684;-85
2023/10/28 09:55:55;;;;;;;;;;;12.90;61.80;;;;;;4967573;28;114394;-86
2023/10/28 09:58:25;;;;;;;;;;;12.90;61.70;;;;;;4967561;28;114113;-86
2023/10/28 10:00:54;;;;;;;;;;;12.90;61.80;;;;;;4966492;28;114863;-86
2023/10/28 10:03:40;;;;;;;;;;;12.80;61.80;;;;;;4968041;28;114679;-85
2023/10/28 10:06:08;;;;;;;;;;;12.80;61.80;;;;;;4968953;28;114388;-85
2023/10/28 10:08:36;;;;;;;;;;;12.80;61.90;;;;;;4951949;28;114473;-87
2023/10/28 10:11:05;;;;;;;;;;;12.90;61.90;;;;;;4950219;28;115651;-85
2023/10/28 10:13:46;;;;;;;;;;;12.90;61.90;;;;;;4949986;28;114806;-85
2023/10/28 10:16:32;;;;;;;;;;;12.90;61.80;;;;;;4950975;28;114555;-86
2023/10/28 10:18:59;;;;;;;;;;;12.90;61.90;;;;;;5000299;28;114408;-87
2023/10/28 10:21:29;;;;;;;;;;;12.90;62.00;;;;;;4969490;28;115852;-86
2023/10/28 10:24:01;;;;;;;;;;;12.90;61.80;;;;;;4953685;28;114928;-85
2023/10/28 10:26:30;;;;;;;;;;;12.90;61.80;;;;;;4971676;28;114453;-85
2023/10/28 10:29:00;;;;;;;;;;;13.00;61.90;;;;;;4971690;28;114208;-86
2023/10/28 10:31:29;;;;;;;;;;;13.10;61.80;;;;;;4970140;28;117691;-85
2023/10/28 10:34:09;;;;;;;;;;;13.10;61.70;;;;;;4971954;28;114596;-86
2023/10/28 10:36:43;;;;;;;;;;;13.10;61.70;;;;;;4971526;28;114349;-85
2023/10/28 10:39:15;;;;;;;;;;;13.20;61.80;;;;;;4970787;28;114924;-86
2023/10/28 10:41:43;;;;;;;;;;;13.30;61.80;;;;;;4985923;28;114991;-87
2023/10/28 10:44:42;;;;;;;;;;;13.40;61.70;;;;;;4936901;28;116992;-86
2023/10/28 10:47:10;;;;;;;;;;;13.50;61.50;;;;;;4969599;28;114282;-86
2023/10/28 10:49:38;;;;;;;;;;;13.60;61.30;;;;;;5003403;28;114368;-86
2023/10/28 10:52:06;;;;;;;;;;;13.50;61.30;;;;;;4970637;28;115102;-86
2023/10/28 10:54:38;;;;;;;;;;;13.60;61.20;;;;;;4953361;28;114705;-86
2023/10/28 10:57:06;;;;;;;;;;;13.60;61.20;;;;;;4954524;28;114221;-84
2023/10/28 10:59:34;;;;;;;;;;;13.60;60.80;;;;;;4970585;28;114375;-85
2023/10/28 11:02:02;;;;;;;;;;;13.50;60.90;;;;;;4971878;28;115285;-86
2023/10/28 11:04:29;;;;;;;;;;;13.50;60.80;;;;;;4972664;28;115736;-86
2023/10/28 11:06:57;;;;;;;;;;;13.40;60.80;;;;;;4954022;28;114286;-86
2023/10/28 11:09:25;;;;;;;;;;;13.40;60.80;;;;;;4954706;28;114492;-87
2023/10/28 11:11:53;;;;;;;;;;;13.30;60.90;;;;;;4969581;28;114876;-86
2023/10/28 11:14:20;;;;;;;;;;;13.30;61.00;;;;;;4985658;28;114799;-86
2023/10/28 11:16:47;;;;;;;;;;;13.30;61.10;;;;;;4953924;28;114464;-86
2023/10/28 11:19:14;;;;;;;;;;;13.30;61.10;;;;;;4970286;28;114375;-85
2023/10/28 11:21:43;;;;;;;;;;;13.30;61.20;;;;;;4968564;28;115062;-86
2023/10/28 11:24:11;;;;;;;;;;;13.50;61.20;;;;;;4953185;28;115905;-86
2023/10/28 11:26:38;;;;;;;;;;;13.50;61.20;;;;;;4952957;28;114253;-86
2023/10/28 11:29:06;;;;;;;;;;;13.60;61.10;;;;;;4937613;28;114407;-85
2023/10/28 11:31:34;;;;;;;;;;;13.70;60.80;;;;;;4985107;28;114814;-85
2023/10/28 11:34:04;;;;;;;;;;;13.70;60.90;;;;;;4952711;28;114633;-86
2023/10/28 11:36:33;;;;;;;;;;;13.70;60.80;;;;;;4954080;28;114287;-86
2023/10/28 11:39:08;;;;;;;;;;;13.80;60.20;;;;;;4971178;28;114966;-86
2023/10/28 11:41:36;;;;;;;;;;;13.80;60.40;;;;;;4986258;28;115524;-86
2023/10/28 11:44:04;;;;;;;;;;;13.80;60.30;;;;;;4953641;28;115204;-86
2023/10/28 11:46:32;;;;;;;;;;;13.90;60.20;;;;;;4971692;28;114154;-85
2023/10/28 11:49:03;;;;;;;;;;;13.90;60.20;;;;;;4969870;28;114039;-86
2023/10/28 11:51:31;;;;;;;;;;;13.90;60.20;;;;;;4970326;28;114931;-86
2023/10/28 11:53:58;;;;;;;;;;;13.90;60.00;;;;;;5001085;28;115227;-86
2023/10/28 11:56:26;;;;;;;;;;;14.00;60.00;;;;;;4969142;28;114257;-86
2023/10/28 11:58:53;;;;;;;;;;;14.10;60.00;;;;;;4952737;28;114241;-86
2023/10/28 12:01:20;;;;;;;;;;;14.20;59.80;;;;;;5001018;28;114904;-86
2023/10/28 12:03:48;;;;;;;;;;;14.20;59.40;;;;;;4952105;28;114669;-86
2023/10/28 12:06:15;;;;;;;;;;;14.20;59.40;;;;;;4968993;28;114223;-86
2023/10/28 12:08:57;;;;;;;;;;;14.20;59.20;;;;;;4969462;28;114467;-86
2023/10/28 12:11:25;;;;;;;;;;;14.10;59.20;;;;;;4968138;28;117728;-86
2023/10/28 12:13:54;;;;;;;;;;;14.10;59.10;;;;;;5000349;28;116773;-86
2023/10/28 12:16:21;;;;;;;;;;;14.10;59.20;;;;;;4968795;28;114503;-85
2023/10/28 12:18:49;;;;;;;;;;;14.10;59.10;;;;;;4968530;28;114301;-85
2023/10/28 12:21:17;;;;;;;;;;;14.20;59.20;;;;;;4968461;28;114859;-86
2023/10/28 12:23:45;;;;;;;;;;;14.20;59.20;;;;;;4967662;28;117161;-86
2023/10/28 12:26:12;;;;;;;;;;;14.20;58.60;;;;;;4968581;28;114126;-86
2023/10/28 12:28:39;;;;;;;;;;;14.10;58.50;;;;;;4969064;28;114342;-86
2023/10/28 12:31:07;;;;;;;;;;;14.10;58.40;;;;;;4967990;28;117615;-87
2023/10/28 12:33:34;;;;;;;;;;;14.10;58.50;;;;;;5000542;28;114632;-89
2023/10/28 12:36:10;;;;;;;;;;;14.10;58.20;;;;;;4936945;28;114173;-85
2023/10/28 12:38:37;;;;;;;;;;;14.20;58.20;;;;;;4953222;28;114156;-86
2023/10/28 12:41:04;;;;;;;;;;;14.10;58.00;;;;;;4967352;28;117775;-87
2023/10/28 12:43:31;;;;;;;;;;;14.20;57.80;;;;;;4934092;28;115412;-87
2023/10/28 12:45:58;;;;;;;;;;;14.20;57.80;;;;;;4920481;28;114451;-86
2023/10/28 12:48:25;;;;;;;;;;;14.20;57.80;;;;;;4951983;28;114729;-85
2023/10/28 12:50:53;;;;;;;;;;;14.20;57.80;;;;;;4984867;28;114974;-86
2023/10/28 12:53:20;;;;;;;;;;;14.20;58.00;;;;;;4972474;28;114616;-86
2023/10/28 12:55:47;;;;;;;;;;;14.20;57.90;;;;;;4969221;28;114447;-87
2023/10/28 12:58:14;;;;;;;;;;;14.20;58.00;;;;;;5001940;28;114409;-87
2023/10/28 13:00:44;;;;;;;;;;;14.20;57.90;;;;;;4951524;28;114946;-86
2023/10/28 13:03:11;;;;;;;;;;;14.20;57.60;;;;;;4966806;28;118550;-87
2023/10/28 13:05:39;;;;;;;;;;;14.20;57.60;;;;;;4952143;28;114016;-87
2023/10/28 13:08:06;;;;;;;;;;;14.20;57.70;;;;;;4968643;28;114317;-87
2023/10/28 13:10:34;;;;;;;;;;;14.20;57.90;;;;;;4967438;28;118124;-86
2023/10/28 13:13:03;;;;;;;;;;;14.20;57.90;;;;;;4967458;28;114898;-86
2023/10/28 13:15:30;;;;;;;;;;;14.20;57.80;;;;;;4970028;28;114065;-86
2023/10/28 13:18:00;;;;;;;;;;;14.10;57.80;;;;;;4938499;28;114423;-85
2023/10/28 13:20:27;;;;;;;;;;;14.10;57.90;;;;;;4968607;28;115559;-86
2023/10/28 13:22:55;;;;;;;;;;;14.10;57.90;;;;;;4935501;28;117072;-85
2023/10/28 13:25:23;;;;;;;;;;;14.10;57.90;;;;;;4968923;28;114179;-86
2023/10/28 13:27:50;;;;;;;;;;;14.10;57.90;;;;;;5002673;28;114322;-86
2023/10/28 13:30:17;;;;;;;;;;;14.00;57.90;;;;;;4984049;28;114431;-86
2023/10/28 13:32:44;;;;;;;;;;;14.00;57.70;;;;;;4967635;28;118078;-85
2023/10/28 13:35:21;;;;;;;;;;;14.00;57.80;;;;;;4968218;28;114352;-86
2023/10/28 13:37:49;;;;;;;;;;;14.00;57.80;;;;;;4968192;28;114495;-86
2023/10/28 13:40:17;;;;;;;;;;;13.90;57.80;;;;;;4950841;28;115226;-86
2023/10/28 13:42:44;;;;;;;;;;;13.90;57.80;;;;;;4966424;28;114820;-86
2023/10/28 13:45:12;;;;;;;;;;;13.80;57.90;;;;;;4967388;28;114466;-85
2023/10/28 13:47:42;;;;;;;;;;;13.80;57.90;;;;;;4984879;28;114396;-86
2023/10/28 13:50:09;;;;;;;;;;;13.80;57.90;;;;;;4966631;28;118319;-85
2023/10/28 13:52:38;;;;;;;;;;;13.70;57.90;;;;;;4966833;28;117960;-86
2023/10/28 13:55:06;;;;;;;;;;;13.70;58.00;;;;;;4970080;28;114144;-85
2023/10/28 13:57:33;;;;;;;;;;;13.70;58.10;;;;;;4972483;28;114080;-86
2023/10/28 14:00:05;;;;;;;;;;;13.70;58.10;;;;;;4970142;28;117897;-86
2023/10/28 14:02:32;;;;;;;;;;;13.70;58.20;;;;;;4970263;28;114671;-86
2023/10/28 14:05:00;;;;;;;;;;;13.70;58.20;;;;;;4987044;28;114157;-86
2023/10/28 14:07:27;;;;;;;;;;;13.70;58.30;;;;;;4987468;28;114221;-87
2023/10/28 14:09:54;;;;;;;;;;;13.70;58.40;;;;;;4969782;28;117967;-85